Time;durP1;ratioP1;P1;durP2;ratioP2;P2;SDS_P1;SDS_P2;PMS_P1;PMS_P2;Temp;Humidity;BMP_temperature;BMP_pressure;BME280_temperature;BME280_humidity;BME280_pressure;Samples;Min_cycle;Max_cycle;Signal;HPM_P1;HPM_P2
2023/05/16 00:01:57;;;;;;;9.13;1.97;;;8.10;99.90;;;;;;4991124;28;20030;-66
2023/05/16 00:04:24;;;;;;;13.17;2.53;;;8.00;99.90;;;;;;4989762;28;20077;-71
2023/05/16 00:06:50;;;;;;;11.18;2.40;;;8.00;99.90;;;;;;4996400;28;20064;-68
2023/05/16 00:09:16;;;;;;;9.27;1.47;;;8.00;99.90;;;;;;4994101;28;20061;-68
2023/05/16 00:11:41;;;;;;;10.10;1.53;;;7.90;99.90;;;;;;4987462;28;20019;-66
2023/05/16 00:14:07;;;;;;;7.67;1.97;;;8.00;99.90;;;;;;4994124;28;20062;-66
2023/05/16 00:16:35;;;;;;;15.70;1.80;;;7.90;99.90;;;;;;4994858;28;20040;-66
2023/05/16 00:19:01;;;;;;;12.60;2.25;;;7.90;99.90;;;;;;4994238;28;20357;-66
2023/05/16 00:21:27;;;;;;;10.63;2.60;;;7.90;99.90;;;;;;4994251;28;20030;-66
2023/05/16 00:23:53;;;;;;;11.27;1.93;;;7.90;99.90;;;;;;4995758;28;20057;-66
2023/05/16 00:26:19;;;;;;;9.47;1.43;;;7.90;99.90;;;;;;4985208;28;20279;-66
2023/05/16 00:28:45;;;;;;;6.77;1.47;;;8.00;99.90;;;;;;4994730;28;20035;-66
2023/05/16 00:31:11;;;;;;;10.30;2.07;;;8.00;99.90;;;;;;4988421;28;20330;-81
2023/05/16 00:33:37;;;;;;;19.33;3.27;;;8.00;99.90;;;;;;4993987;28;20030;-66
2023/05/16 00:36:03;;;;;;;7.50;1.43;;;8.00;99.90;;;;;;4993669;28;20026;-65
2023/05/16 00:38:29;;;;;;;19.75;2.28;;;8.00;99.90;;;;;;4991940;28;20057;-66
2023/05/16 00:40:54;;;;;;;11.33;1.63;;;8.00;99.90;;;;;;4992098;28;20065;-66
2023/05/16 00:43:20;;;;;;;5.03;1.23;;;7.90;99.90;;;;;;4990600;28;20033;-68
2023/05/16 00:45:46;;;;;;;13.33;1.53;;;8.00;99.90;;;;;;4995295;28;20033;-66
2023/05/16 00:48:12;;;;;;;9.57;2.07;;;7.90;99.90;;;;;;4990464;28;20022;-67
2023/05/16 00:50:39;;;;;;;11.65;2.17;;;7.90;99.90;;;;;;4992581;28;20365;-66
2023/05/16 00:53:05;;;;;;;15.15;2.03;;;7.90;99.90;;;;;;4996067;28;20034;-66
2023/05/16 00:55:31;;;;;;;13.63;2.28;;;7.90;99.90;;;;;;4986868;28;20493;-67
2023/05/16 00:57:58;;;;;;;12.63;2.05;;;7.90;99.90;;;;;;4992722;28;20034;-66
2023/05/16 01:00:24;;;;;;;11.63;2.45;;;7.90;99.90;;;;;;4993051;28;20370;-67
2023/05/16 01:02:52;;;;;;;21.90;3.00;;;7.90;99.90;;;;;;5009888;28;20034;-66
2023/05/16 01:05:19;;;;;;;13.13;2.33;;;7.90;99.90;;;;;;4989414;28;20831;-66
2023/05/16 01:07:45;;;;;;;6.60;1.60;;;7.90;99.90;;;;;;4986024;28;20034;-68
2023/05/16 01:10:11;;;;;;;16.23;2.10;;;7.80;99.90;;;;;;4990718;28;20045;-67
2023/05/16 01:13:08;;;;;;;13.07;1.63;;;7.80;99.90;;;;;;4989028;28;20365;-67
2023/05/16 01:16:03;;;;;;;;;;;7.80;99.90;;;;;;4989934;28;20050;-66
2023/05/16 01:18:31;;;;;;;9.27;1.90;;;7.80;99.90;;;;;;4996766;28;20217;-67
2023/05/16 01:21:12;;;;;;;11.82;2.25;;;7.80;99.90;;;;;;4993839;28;20472;-66
2023/05/16 01:24:03;;;;;;;7.03;1.50;;;7.70;99.90;;;;;;4989672;28;20054;-79
2023/05/16 01:26:31;;;;;;;6.28;1.58;;;7.70;99.90;;;;;;4992439;28;20101;-66
2023/05/16 01:28:57;;;;;;;7.03;1.67;;;7.70;99.90;;;;;;4988191;28;20026;-66
2023/05/16 01:31:23;;;;;;;14.15;1.90;;;7.70;99.90;;;;;;4993243;28;20019;-67
2023/05/16 01:33:49;;;;;;;5.37;1.63;;;7.60;99.90;;;;;;4981984;28;20053;-66
2023/05/16 01:36:25;;;;;;;14.30;2.22;;;7.70;99.90;;;;;;4993253;28;20038;-67
2023/05/16 01:39:27;;;;;;;9.70;2.05;;;7.70;99.90;;;;;;4987558;28;20129;-67
2023/05/16 01:42:06;;;;;;;15.77;2.00;;;7.70;99.90;;;;;;4988867;28;20026;-78
2023/05/16 01:44:35;;;;;;;17.58;2.38;;;7.60;99.90;;;;;;4984564;28;20038;-67
2023/05/16 01:47:06;;;;;;;14.20;1.98;;;7.60;99.90;;;;;;4990259;28;20426;-67
2023/05/16 01:49:43;;;;;;;11.23;2.10;;;7.60;99.90;;;;;;4992584;28;20033;-66
2023/05/16 01:52:13;;;;;;;11.63;1.88;;;7.60;99.90;;;;;;4992632;28;20157;-67
2023/05/16 01:54:44;;;;;;;10.20;1.80;;;7.50;99.90;;;;;;4992506;28;20422;-80
2023/05/16 01:57:11;;;;;;;6.10;1.67;;;7.50;99.90;;;;;;4993345;28;20034;-65
2023/05/16 01:59:38;;;;;;;14.43;1.92;;;7.50;99.90;;;;;;4991273;28;20030;-66
2023/05/16 02:02:04;;;;;;;;;;;7.50;99.90;;;;;;4990200;28;20113;-66
2023/05/16 02:04:30;;;;;;;11.27;1.95;;;7.50;99.90;;;;;;4990609;28;20273;-66
2023/05/16 02:06:56;;;;;;;13.45;2.13;;;7.50;99.90;;;;;;4992541;28;20042;-67
2023/05/16 02:09:22;;;;;;;16.93;2.67;;;7.40;99.90;;;;;;4989104;28;20027;-67
2023/05/16 02:11:48;;;;;;;10.17;1.60;;;7.40;99.90;;;;;;4990403;28;20019;-67
2023/05/16 02:14:14;;;;;;;18.13;1.43;;;7.40;99.90;;;;;;4993794;28;20088;-66
2023/05/16 02:16:40;;;;;;;9.63;2.47;;;7.50;99.90;;;;;;4989264;28;20034;-66
2023/05/16 02:19:06;;;;;;;10.80;1.47;;;7.50;99.90;;;;;;4992228;28;20702;-65
2023/05/16 02:21:31;;;;;;;9.63;1.90;;;7.50;99.90;;;;;;4991861;28;20381;-66
2023/05/16 02:23:57;;;;;;;10.67;1.60;;;7.40;99.90;;;;;;4993103;28;20061;-66
2023/05/16 02:26:23;;;;;;;8.32;1.77;;;7.40;99.90;;;;;;4991051;28;20030;-66
2023/05/16 02:28:49;;;;;;;11.03;1.37;;;7.40;99.90;;;;;;4994804;28;20045;-81
2023/05/16 02:31:26;;;;;;;9.87;1.70;;;7.40;99.90;;;;;;4993722;28;20049;-66
2023/05/16 02:33:51;;;;;;;9.48;2.13;;;7.50;99.90;;;;;;4992950;28;20603;-66
2023/05/16 02:36:17;;;;;;;8.13;2.03;;;7.50;99.90;;;;;;4991394;28;20030;-80
2023/05/16 02:38:43;;;;;;;10.83;1.90;;;7.50;99.90;;;;;;4989552;28;20026;-66
2023/05/16 02:41:09;;;;;;;11.53;2.10;;;7.60;99.90;;;;;;5011371;28;20022;-66
2023/05/16 02:43:35;;;;;;;11.00;1.73;;;7.70;99.90;;;;;;4997288;28;20034;-65
2023/05/16 02:46:04;;;;;;;5.82;1.40;;;7.70;99.90;;;;;;4995439;28;20031;-66
2023/05/16 02:48:30;;;;;;;9.25;1.60;;;7.70;99.90;;;;;;4993473;28;20053;-66
2023/05/16 02:50:56;;;;;;;18.17;2.33;;;7.70;99.90;;;;;;4993972;28;20036;-66
2023/05/16 02:53:23;;;;;;;10.52;1.85;;;7.60;99.90;;;;;;4995063;28;20053;-66
2023/05/16 02:55:49;;;;;;;26.53;2.50;;;7.60;99.90;;;;;;4998439;28;20034;-66
2023/05/16 02:58:14;;;;;;;18.93;1.57;;;7.60;99.90;;;;;;4997289;28;20026;-66
2023/05/16 03:00:40;;;;;;;6.97;1.17;;;7.50;99.90;;;;;;4993550;28;20052;-65
2023/05/16 03:03:06;;;;;;;13.83;2.23;;;7.50;99.90;;;;;;4994263;28;20042;-67
2023/05/16 03:05:32;;;;;;;13.57;1.33;;;7.50;99.90;;;;;;5001335;28;20038;-67
2023/05/16 03:07:58;;;;;;;9.93;1.40;;;7.50;99.90;;;;;;4999076;28;20054;-67
2023/05/16 03:10:24;;;;;;;12.13;2.20;;;7.40;99.90;;;;;;4992126;28;20030;-67
2023/05/16 03:12:49;;;;;;;6.65;2.33;;;7.40;99.90;;;;;;4995344;28;20030;-67
2023/05/16 03:15:16;;;;;;;16.33;1.80;;;7.30;99.90;;;;;;4993251;28;20667;-67
2023/05/16 03:17:42;;;;;;;7.68;1.20;;;7.30;99.90;;;;;;4999371;28;20113;-67
2023/05/16 03:20:08;;;;;;;16.67;1.70;;;7.20;99.90;;;;;;4997871;28;20165;-79
2023/05/16 03:22:34;;;;;;;9.27;1.65;;;7.20;99.90;;;;;;4995386;28;20062;-67
2023/05/16 03:25:00;;;;;;;8.83;1.37;;;7.10;99.90;;;;;;4994993;28;20065;-66
2023/05/16 03:27:26;;;;;;;14.30;1.30;;;7.00;99.90;;;;;;4996835;28;20035;-67
2023/05/16 03:29:52;;;;;;;8.30;2.03;;;7.00;99.90;;;;;;4999843;28;20319;-67
2023/05/16 03:32:18;;;;;;;23.73;1.67;;;7.00;99.90;;;;;;4995299;28;20026;-67
2023/05/16 03:34:44;;;;;;;9.57;1.93;;;7.00;99.90;;;;;;5002340;28;20457;-66
2023/05/16 03:37:09;;;;;;;11.37;1.43;;;7.00;99.90;;;;;;4998642;28;20030;-66
2023/05/16 03:39:35;;;;;;;10.27;1.53;;;7.10;99.90;;;;;;4994825;28;20038;-67
2023/05/16 03:42:01;;;;;;;11.07;1.77;;;7.20;99.90;;;;;;5012423;28;20131;-67
2023/05/16 03:44:27;;;;;;;11.83;1.37;;;7.20;99.90;;;;;;5005646;28;20100;-67
2023/05/16 03:46:54;;;;;;;5.30;1.87;;;7.20;99.90;;;;;;4995327;28;20029;-79
2023/05/16 03:49:27;;;;;;;12.05;1.70;;;7.20;99.90;;;;;;5004294;28;20503;-67
2023/05/16 03:51:52;;;;;;;12.70;1.48;;;7.20;99.90;;;;;;4992306;28;20097;-67
2023/05/16 03:54:18;;;;;;;9.23;1.30;;;7.10;99.90;;;;;;4994223;28;20128;-67
2023/05/16 03:56:44;;;;;;;11.17;2.00;;;7.10;99.90;;;;;;4995341;28;20041;-67
2023/05/16 03:59:10;;;;;;;6.57;1.43;;;7.10;99.90;;;;;;4993043;28;20112;-67
2023/05/16 04:01:35;;;;;;;10.40;1.90;;;7.10;99.90;;;;;;4995876;28;20034;-67
2023/05/16 04:04:01;;;;;;;12.97;1.50;;;7.00;99.90;;;;;;4994669;28;20026;-79
2023/05/16 04:06:26;;;;;;;13.60;1.90;;;7.00;99.90;;;;;;4995911;28;20317;-67
2023/05/16 04:08:52;;;;;;;12.10;1.87;;;7.00;99.90;;;;;;4995819;28;20096;-67
2023/05/16 04:11:18;;;;;;;14.67;1.77;;;7.10;99.90;;;;;;4993230;28;20019;-67
2023/05/16 04:13:44;;;;;;;5.73;1.53;;;7.20;99.90;;;;;;4991099;28;20366;-67
2023/05/16 04:16:09;;;;;;;7.23;1.80;;;7.20;99.90;;;;;;4992093;28;20039;-66
2023/05/16 04:18:35;;;;;;;6.40;2.10;;;7.30;99.90;;;;;;4994854;28;20046;-66
2023/05/16 04:21:01;;;;;;;11.20;1.80;;;7.30;99.90;;;;;;4980166;28;20034;-82
2023/05/16 04:23:27;;;;;;;12.95;1.98;;;7.40;99.90;;;;;;4987498;28;20478;-66
2023/05/16 04:25:54;;;;;;;9.10;1.67;;;7.60;99.90;;;;;;4994674;28;20109;-67
2023/05/16 04:28:19;;;;;;;6.05;1.52;;;7.60;99.90;;;;;;4993522;28;20038;-66
2023/05/16 04:30:46;;;;;;;11.93;1.40;;;7.80;99.90;;;;;;4994378;28;20341;-68
2023/05/16 04:33:12;;;;;;;12.85;1.75;;;7.90;99.90;;;;;;4991238;28;20820;-66
2023/05/16 04:35:38;;;;;;;3.20;1.03;;;7.90;99.90;;;;;;4994303;28;20034;-66
2023/05/16 04:38:04;;;;;;;9.55;1.48;;;7.90;99.90;;;;;;4990847;28;20030;-67
2023/05/16 04:40:30;;;;;;;6.70;1.80;;;8.00;99.90;;;;;;4990956;28;20046;-67
2023/05/16 04:42:56;;;;;;;14.02;1.55;;;8.00;99.90;;;;;;4991856;28;20124;-67
2023/05/16 04:45:22;;;;;;;5.33;1.17;;;8.00;99.90;;;;;;4982196;28;20097;-67
2023/05/16 04:47:48;;;;;;;11.20;2.17;;;8.00;99.90;;;;;;4992259;28;20417;-67
2023/05/16 04:50:15;;;;;;;14.33;2.10;;;8.00;99.90;;;;;;4988795;28;20049;-67
2023/05/16 04:52:40;;;;;;;;;;;8.00;99.90;;;;;;4991468;28;20076;-66
2023/05/16 04:55:06;;;;;;;9.50;1.10;;;8.10;99.90;;;;;;4991938;28;19957;-67
2023/05/16 04:57:32;;;;;;;9.40;1.58;;;8.10;99.90;;;;;;4991079;28;20046;-67
2023/05/16 04:59:57;;;;;;;12.97;1.80;;;8.10;99.90;;;;;;4995867;28;20069;-67
2023/05/16 05:02:23;;;;;;;5.80;1.23;;;8.20;99.90;;;;;;4991827;28;20158;-67
2023/05/16 05:04:50;;;;;;;16.97;1.57;;;8.20;99.90;;;;;;4994834;28;20030;-84
2023/05/16 05:07:16;;;;;;;6.53;1.73;;;8.30;99.90;;;;;;4989928;28;20034;-67
2023/05/16 05:09:41;;;;;;;14.97;1.70;;;8.40;99.90;;;;;;4993381;28;20369;-66
2023/05/16 05:12:08;;;;;;;13.00;1.63;;;8.50;99.90;;;;;;5000277;28;20049;-66
2023/05/16 05:14:34;;;;;;;11.90;1.77;;;8.50;99.90;;;;;;5000909;28;20321;-66
2023/05/16 05:17:00;;;;;;;8.90;1.80;;;8.60;99.90;;;;;;4997769;28;20036;-67
2023/05/16 05:19:26;;;;;;;10.23;1.45;;;8.70;99.90;;;;;;5007717;28;20018;-67
2023/05/16 05:21:52;;;;;;;6.90;1.17;;;8.80;99.90;;;;;;4993193;28;20092;-75
2023/05/16 05:24:18;;;;;;;9.40;0.87;;;8.80;99.90;;;;;;5003521;28;20044;-66
2023/05/16 05:26:43;;;;;;;11.43;1.93;;;8.90;99.90;;;;;;5000535;28;20068;-66
2023/05/16 05:29:09;;;;;;;5.60;2.03;;;8.90;99.90;;;;;;5013226;28;20043;-67
2023/05/16 05:31:35;;;;;;;10.20;1.53;;;9.00;99.90;;;;;;5004930;28;20381;-70
2023/05/16 05:34:02;;;;;;;8.13;1.33;;;9.10;99.90;;;;;;4996187;28;20429;-66
2023/05/16 05:36:28;;;;;;;19.33;1.70;;;9.10;99.90;;;;;;4996834;28;20068;-66
2023/05/16 05:38:54;;;;;;;12.33;1.77;;;9.20;99.90;;;;;;4993432;28;20578;-66
2023/05/16 05:41:21;;;;;;;5.17;0.93;;;9.20;99.90;;;;;;5000566;28;20283;-66
2023/05/16 05:43:46;;;;;;;;;;;9.30;99.90;;;;;;5010438;28;20028;-66
2023/05/16 05:46:12;;;;;;;4.97;0.87;;;9.40;99.90;;;;;;4995119;28;19910;-66
2023/05/16 05:48:38;;;;;;;3.73;0.77;;;9.40;99.90;;;;;;4997537;28;20089;-67
2023/05/16 05:51:04;;;;;;;8.40;1.50;;;9.50;99.90;;;;;;4989439;28;20397;-66
2023/05/16 05:53:29;;;;;;;11.90;1.43;;;9.60;99.90;;;;;;4995093;28;20030;-85
2023/05/16 05:55:55;;;;;;;4.03;0.93;;;9.70;99.90;;;;;;4993966;28;20445;-67
2023/05/16 05:58:22;;;;;;;5.23;0.93;;;9.70;99.90;;;;;;4995029;28;20042;-66
2023/05/16 06:00:47;;;;;;;13.50;1.77;;;9.80;99.90;;;;;;4995431;28;20317;-66
2023/05/16 06:03:13;;;;;;;10.33;1.53;;;9.80;99.90;;;;;;4994970;28;20038;-65
2023/05/16 06:05:39;;;;;;;7.40;1.10;;;9.80;99.90;;;;;;5005442;28;20023;-77
2023/05/16 06:08:05;;;;;;;4.43;1.10;;;9.80;99.90;;;;;;5001530;28;20057;-65
2023/05/16 06:10:30;;;;;;;3.03;1.00;;;9.90;99.90;;;;;;4995075;28;20037;-82
2023/05/16 06:12:56;;;;;;;7.17;0.97;;;9.80;99.90;;;;;;4996553;28;20033;-67
2023/05/16 06:15:21;;;;;;;5.37;1.13;;;9.90;99.90;;;;;;5001886;28;20048;-83
2023/05/16 06:17:47;;;;;;;6.93;2.00;;;9.90;99.90;;;;;;4994318;28;20031;-65
2023/05/16 06:20:13;;;;;;;2.73;0.70;;;10.00;99.90;;;;;;4998604;28;20033;-68
2023/05/16 06:22:40;;;;;;;14.32;1.60;;;10.00;99.90;;;;;;4996858;28;20050;-77
2023/05/16 06:25:06;;;;;;;12.43;1.63;;;10.10;99.90;;;;;;5004748;28;20026;-67
2023/05/16 06:27:32;;;;;;;4.83;1.00;;;10.20;99.90;;;;;;4991565;28;20303;-67
2023/05/16 06:29:58;;;;;;;5.03;0.87;;;10.20;99.90;;;;;;5005354;28;20023;-66
2023/05/16 06:32:23;;;;;;;3.83;0.67;;;10.20;99.90;;;;;;4995326;28;20061;-88
2023/05/16 06:34:49;;;;;;;10.20;1.03;;;10.20;99.90;;;;;;4985272;28;20768;-67
2023/05/16 06:37:15;;;;;;;6.30;0.90;;;10.30;99.90;;;;;;4988140;28;20026;-83
2023/05/16 06:39:40;;;;;;;9.90;1.13;;;10.30;99.90;;;;;;4996263;28;20413;-65
2023/05/16 06:42:06;;;;;;;5.17;1.20;;;10.30;99.90;;;;;;4991404;28;20061;-67
2023/05/16 06:44:32;;;;;;;4.23;0.80;;;10.30;99.90;;;;;;4988803;28;20022;-65
2023/05/16 06:46:58;;;;;;;1.93;0.70;;;10.50;99.90;;;;;;4991338;28;20022;-67
2023/05/16 06:49:23;;;;;;;14.70;1.70;;;10.50;99.90;;;;;;4994436;28;20421;-66
2023/05/16 06:51:49;;;;;;;6.27;0.70;;;10.50;99.90;;;;;;4993022;28;20023;-67
2023/05/16 06:54:15;;;;;;;2.70;0.70;;;10.50;99.90;;;;;;4994281;28;20026;-67
2023/05/16 06:56:40;;;;;;;2.50;0.73;;;10.40;99.90;;;;;;4991724;28;20030;-67
2023/05/16 06:59:06;;;;;;;5.87;1.27;;;10.50;99.90;;;;;;4994535;28;20038;-68
2023/05/16 07:01:32;;;;;;;17.40;1.30;;;10.40;99.90;;;;;;4994139;28;20034;-67
2023/05/16 07:03:57;;;;;;;8.50;1.00;;;10.50;99.90;;;;;;4994603;28;20030;-67
2023/05/16 07:06:23;;;;;;;3.50;1.07;;;10.60;99.90;;;;;;4994021;28;20022;-67
2023/05/16 07:08:49;;;;;;;3.20;0.63;;;10.60;99.90;;;;;;4992120;28;20030;-68
2023/05/16 07:11:15;;;;;;;0.80;0.60;;;10.60;99.90;;;;;;4992780;28;20042;-67
2023/05/16 07:13:40;;;;;;;2.30;0.90;;;10.50;99.90;;;;;;4985205;28;20367;-67
2023/05/16 07:16:07;;;;;;;7.10;0.90;;;10.50;99.90;;;;;;4980539;28;20054;-67
2023/05/16 07:18:33;;;;;;;4.05;1.23;;;10.40;99.90;;;;;;4993852;28;20050;-67
2023/05/16 07:20:58;;;;;;;8.43;1.03;;;10.40;99.90;;;;;;4991771;28;20136;-66
2023/05/16 07:23:24;;;;;;;6.23;0.90;;;10.30;99.90;;;;;;4989766;28;20023;-67
2023/05/16 07:25:50;;;;;;;7.10;0.80;;;10.50;99.90;;;;;;5006314;28;20015;-67
2023/05/16 07:28:16;;;;;;;2.53;1.00;;;10.70;99.90;;;;;;4985791;28;20027;-67
2023/05/16 07:30:42;;;;;;;5.27;1.37;;;10.90;99.90;;;;;;4984324;28;20432;-83
2023/05/16 07:33:09;;;;;;;3.10;0.73;;;11.00;99.90;;;;;;4983723;28;20093;-78
2023/05/16 07:35:34;;;;;;;;;;;11.20;99.90;;;;;;4995290;28;20414;-67
2023/05/16 07:38:00;;;;;;;15.27;1.00;;;11.20;99.90;;;;;;4992303;28;19972;-68
2023/05/16 07:40:28;;;;;;;8.90;0.97;;;11.30;99.90;;;;;;4990299;28;20077;-68
2023/05/16 07:42:53;;;;;;;5.15;1.00;;;11.20;99.90;;;;;;4994528;28;20441;-67
2023/05/16 07:45:19;;;;;;;5.03;1.07;;;11.20;99.90;;;;;;4993139;28;20030;-66
2023/05/16 07:47:45;;;;;;;8.43;0.87;;;11.30;99.90;;;;;;4993019;28;20422;-68
2023/05/16 07:50:11;;;;;;;3.03;0.80;;;11.40;99.90;;;;;;4986268;28;20026;-75
2023/05/16 07:52:36;;;;;;;2.60;1.10;;;11.40;99.90;;;;;;4993211;28;20034;-67
2023/05/16 07:55:03;;;;;;;5.77;0.90;;;11.40;99.90;;;;;;4987907;28;20077;-66
2023/05/16 07:57:28;;;;;;;3.58;1.13;;;11.40;99.90;;;;;;4993414;28;20037;-67
2023/05/16 07:59:54;;;;;;;1.87;0.77;;;11.50;99.90;;;;;;4988434;28;20042;-85
2023/05/16 08:02:25;;;;;;;4.05;1.00;;;11.80;99.90;;;;;;4992273;28;20080;-68
2023/05/16 08:04:50;;;;;;;4.93;0.80;;;11.90;99.90;;;;;;4993700;28;20026;-68
2023/05/16 08:07:16;;;;;;;4.13;1.20;;;11.70;99.90;;;;;;4990656;28;20424;-80
2023/05/16 08:09:42;;;;;;;2.87;0.87;;;11.60;99.90;;;;;;4994014;28;20034;-67
2023/05/16 08:12:08;;;;;;;6.47;1.17;;;11.70;99.90;;;;;;4997101;28;20113;-67
2023/05/16 08:14:34;;;;;;;8.15;1.23;;;11.80;99.90;;;;;;4984372;28;20046;-67
2023/05/16 08:16:59;;;;;;;8.30;1.03;;;12.00;99.90;;;;;;4991762;28;20042;-68
2023/05/16 08:19:25;;;;;;;1.63;0.93;;;11.70;99.90;;;;;;4989214;28;20109;-67
2023/05/16 08:21:51;;;;;;;5.27;0.70;;;11.80;99.90;;;;;;4990125;28;20475;-67
2023/05/16 08:24:17;;;;;;;10.63;1.43;;;11.90;99.90;;;;;;5001508;28;20710;-66
2023/05/16 08:26:43;;;;;;;7.33;1.20;;;12.00;99.90;;;;;;5002579;28;20026;-65
2023/05/16 08:29:08;;;;;;;8.13;0.97;;;11.90;99.90;;;;;;4997777;28;20026;-65
2023/05/16 08:31:34;;;;;;;5.53;0.80;;;12.20;99.90;;;;;;5012056;28;20084;-67
2023/05/16 08:34:00;;;;;;;1.70;0.90;;;12.10;99.90;;;;;;5001816;28;20430;-67
2023/05/16 08:36:27;;;;;;;3.15;0.93;;;11.90;99.90;;;;;;5011727;28;20050;-67
2023/05/16 08:38:52;;;;;;;8.35;0.98;;;11.80;99.90;;;;;;5008439;28;20072;-67
2023/05/16 08:41:18;;;;;;;3.73;0.83;;;11.90;99.90;;;;;;5001739;28;20057;-66
2023/05/16 08:43:44;;;;;;;9.60;1.03;;;12.20;99.90;;;;;;5011717;28;20030;-66
2023/05/16 08:46:09;;;;;;;3.37;1.13;;;12.40;99.90;;;;;;5008484;28;20056;-65
2023/05/16 08:48:37;;;;;;;2.57;1.07;;;12.30;99.90;;;;;;5009815;28;20029;-66
2023/05/16 08:51:06;;;;;;;6.28;0.98;;;12.10;99.90;;;;;;4989945;28;20094;-66
2023/05/16 08:53:41;;;;;;;9.80;0.90;;;12.40;99.90;;;;;;4980404;28;20022;-66
2023/05/16 08:56:08;;;;;;;2.75;0.85;;;12.50;99.90;;;;;;4989981;28;20110;-66
2023/05/16 08:58:34;;;;;;;3.20;1.00;;;12.50;99.90;;;;;;4989142;28;20822;-67
2023/05/16 09:01:03;;;;;;;10.15;1.20;;;12.40;99.90;;;;;;4987010;28;20049;-67
2023/05/16 09:03:29;;;;;;;6.13;0.80;;;12.50;99.90;;;;;;4979096;28;20022;-65
2023/05/16 09:05:56;;;;;;;3.40;1.00;;;12.70;99.90;;;;;;4997131;28;20321;-77
2023/05/16 09:08:22;;;;;;;4.85;0.90;;;12.70;99.90;;;;;;4983251;28;20042;-81
2023/05/16 09:10:47;;;;;;;4.30;1.97;;;12.40;99.90;;;;;;4981899;28;20014;-66
2023/05/16 09:13:13;;;;;;;11.63;1.80;;;12.30;99.90;;;;;;4985385;28;20086;-66
2023/05/16 09:15:39;;;;;;;5.72;1.20;;;12.40;99.90;;;;;;5000941;28;20089;-67
2023/05/16 09:18:11;;;;;;;11.07;0.90;;;12.50;99.90;;;;;;4996154;28;20047;-66
2023/05/16 09:20:45;;;;;;;10.50;1.33;;;12.50;99.90;;;;;;4994345;28;20321;-67
2023/05/16 09:23:11;;;;;;;4.60;0.95;;;12.60;99.90;;;;;;4985428;28;20322;-67
2023/05/16 09:25:39;;;;;;;4.00;1.00;;;12.60;99.90;;;;;;4981052;28;20015;-67
2023/05/16 09:28:09;;;;;;;10.43;1.35;;;12.70;99.90;;;;;;4983288;28;20042;-68
2023/05/16 09:30:35;;;;;;;3.83;0.90;;;12.80;99.90;;;;;;4979239;28;20022;-78
2023/05/16 09:33:01;;;;;;;4.28;0.65;;;12.80;99.90;;;;;;4995673;28;20038;-66
2023/05/16 09:35:27;;;;;;;3.27;0.63;;;12.90;99.90;;;;;;4993944;28;20022;-68
2023/05/16 09:37:53;;;;;;;11.63;1.37;;;12.60;99.90;;;;;;4985670;28;20030;-65
2023/05/16 09:40:22;;;;;;;3.33;0.97;;;12.40;99.90;;;;;;4981203;28;20398;-67
2023/05/16 09:43:04;;;;;;;6.53;0.93;;;12.50;99.90;;;;;;4981749;28;20038;-69
2023/05/16 09:45:31;;;;;;;9.65;1.30;;;12.60;99.90;;;;;;4985478;28;20027;-67
2023/05/16 09:48:05;;;;;;;3.97;0.80;;;12.50;99.90;;;;;;4991897;28;20034;-68
2023/05/16 09:50:36;;;;;;;5.85;1.40;;;12.70;99.90;;;;;;4980789;28;20423;-67
2023/05/16 09:53:03;;;;;;;4.47;1.02;;;12.70;99.90;;;;;;4981987;28;20026;-67
2023/05/16 09:55:29;;;;;;;;;;;12.90;99.90;;;;;;4992178;28;20061;-67
2023/05/16 09:57:55;;;;;;;6.30;0.82;;;12.70;99.90;;;;;;4985345;28;19948;-81
2023/05/16 10:00:21;;;;;;;2.13;0.80;;;12.70;99.90;;;;;;4983977;28;20434;-90
2023/05/16 10:02:47;;;;;;;4.50;1.10;;;12.60;99.90;;;;;;4985833;28;20029;-67
2023/05/16 10:05:12;;;;;;;3.33;0.57;;;12.70;99.90;;;;;;4984940;28;20026;-68
2023/05/16 10:07:39;;;;;;;5.93;0.93;;;12.80;99.90;;;;;;4983658;28;20046;-68
2023/05/16 10:10:07;;;;;;;3.88;0.77;;;13.20;99.90;;;;;;4984301;28;20019;-70
2023/05/16 10:12:34;;;;;;;9.32;1.10;;;13.20;99.90;;;;;;4990649;28;20065;-67
2023/05/16 10:15:03;;;;;;;;;;;13.10;99.90;;;;;;4993244;28;20054;-84
2023/05/16 10:17:35;;;;;;;3.50;0.57;;;13.00;99.90;;;;;;4984930;28;19910;-66
2023/05/16 10:20:06;;;;;;;6.70;1.20;;;12.70;99.90;;;;;;4986355;28;20031;-67
2023/05/16 10:22:34;;;;;;;2.90;0.55;;;12.70;99.90;;;;;;4993676;28;20077;-67
2023/05/16 10:25:09;;;;;;;5.35;0.70;;;12.80;99.90;;;;;;4990713;28;20512;-81
2023/05/16 10:27:35;;;;;;;5.72;1.27;;;12.60;99.90;;;;;;5005540;28;20285;-68
2023/05/16 10:30:02;;;;;;;4.13;0.80;;;12.30;99.90;;;;;;4993547;28;20026;-69
2023/05/16 10:32:28;;;;;;;2.50;0.65;;;12.20;99.90;;;;;;5006327;28;20022;-69
2023/05/16 10:34:59;;;;;;;6.10;1.35;;;12.20;99.90;;;;;;5010045;28;20042;-68
2023/05/16 10:37:25;;;;;;;3.47;0.50;;;12.20;99.90;;;;;;5003602;28;20084;-68
2023/05/16 10:39:52;;;;;;;3.83;0.80;;;12.30;99.90;;;;;;4999009;28;20525;-86
2023/05/16 10:42:19;;;;;;;13.73;1.50;;;12.40;99.90;;;;;;4997986;28;20101;-67
2023/05/16 10:44:44;;;;;;;;;;;12.40;99.90;;;;;;4995073;28;20113;-68
2023/05/16 10:47:10;;;;;;;4.25;0.77;;;12.60;99.90;;;;;;4997924;28;20551;-67
2023/05/16 10:49:40;;;;;;;3.67;0.70;;;12.50;99.90;;;;;;4994849;28;20037;-75
2023/05/16 10:52:16;;;;;;;6.25;1.20;;;12.50;99.90;;;;;;4997981;28;20034;-67
2023/05/16 10:54:50;;;;;;;3.13;0.55;;;12.50;99.90;;;;;;4984951;28;20034;-67
2023/05/16 10:57:23;;;;;;;3.70;0.75;;;12.50;99.90;;;;;;4998301;28;20110;-68
2023/05/16 10:59:50;;;;;;;5.45;0.65;;;12.50;99.90;;;;;;4981076;28;20030;-68
2023/05/16 11:02:33;;;;;;;3.00;0.70;;;12.30;99.90;;;;;;4995346;28;20377;-68
2023/05/16 11:05:00;;;;;;;3.22;0.98;;;12.30;99.90;;;;;;4997176;28;20029;-68
2023/05/16 11:07:32;;;;;;;6.68;1.13;;;12.40;99.90;;;;;;5001263;28;20045;-67
2023/05/16 11:10:07;;;;;;;7.65;0.70;;;12.50;99.90;;;;;;5001425;28;20421;-67
2023/05/16 11:12:46;;;;;;;4.00;0.77;;;12.50;99.90;;;;;;5001044;28;20026;-67
2023/05/16 11:15:30;;;;;;;2.65;0.57;;;12.50;99.90;;;;;;5003871;28;20101;-68
2023/05/16 11:18:07;;;;;;;2.13;0.80;;;12.40;99.90;;;;;;5002003;28;20030;-66
2023/05/16 11:20:35;;;;;;;2.78;0.50;;;12.40;99.90;;;;;;5001629;28;20088;-66
2023/05/16 11:23:23;;;;;;;4.65;0.85;;;12.30;99.90;;;;;;5002912;28;20084;-68
2023/05/16 11:25:57;;;;;;;3.35;0.68;;;12.30;99.90;;;;;;4996951;28;20025;-66
2023/05/16 11:28:26;;;;;;;2.85;0.98;;;12.20;99.90;;;;;;5009575;28;20022;-67
2023/05/16 11:30:56;;;;;;;6.97;0.77;;;12.20;99.90;;;;;;5003528;28;20034;-67
2023/05/16 11:33:23;;;;;;;1.15;0.50;;;12.30;99.90;;;;;;5002505;28;20104;-67
2023/05/16 11:36:01;;;;;;;;;;;12.40;99.90;;;;;;5004621;28;20086;-67
2023/05/16 11:38:31;;;;;;;8.75;0.85;;;12.60;99.90;;;;;;5008597;28;19909;-84
2023/05/16 11:41:07;;;;;;;5.97;0.82;;;12.90;99.90;;;;;;5003784;28;20026;-69
2023/05/16 11:43:45;;;;;;;5.95;1.05;;;13.00;99.90;;;;;;5007841;28;20032;-67
2023/05/16 11:46:15;;;;;;;8.20;1.40;;;12.80;99.90;;;;;;4990680;28;20120;-67
2023/05/16 11:48:41;;;;;;;1.90;0.70;;;12.70;99.90;;;;;;5007936;28;20026;-67
2023/05/16 11:51:08;;;;;;;6.43;1.35;;;12.60;99.90;;;;;;4999881;28;20030;-67
2023/05/16 11:53:34;;;;;;;13.90;1.05;;;12.60;99.90;;;;;;4995355;28;20034;-82
2023/05/16 11:56:01;;;;;;;2.47;0.40;;;12.90;99.90;;;;;;4978153;28;20461;-67
2023/05/16 11:58:26;;;;;;;;;;;13.10;99.90;;;;;;4991930;28;20378;-69
2023/05/16 12:00:52;;;;;;;4.70;0.82;;;13.10;99.90;;;;;;4980022;28;20053;-67
2023/05/16 12:03:19;;;;;;;4.00;0.77;;;12.90;99.90;;;;;;4987429;28;20030;-67
2023/05/16 12:05:59;;;;;;;1.95;0.70;;;12.70;99.90;;;;;;4981847;28;20022;-67
2023/05/16 12:08:25;;;;;;;1.63;0.65;;;12.90;99.90;;;;;;4980224;28;20086;-84
2023/05/16 12:10:52;;;;;;;3.95;0.70;;;13.30;99.90;;;;;;4995122;28;20089;-67
2023/05/16 12:13:20;;;;;;;5.10;0.90;;;13.50;99.90;;;;;;4992925;28;20031;-68
2023/05/16 12:15:46;;;;;;;4.20;1.00;;;13.50;99.90;;;;;;4996722;28;20070;-68
2023/05/16 12:18:13;;;;;;;5.00;0.85;;;13.40;99.90;;;;;;4977844;28;20481;-68
2023/05/16 12:20:39;;;;;;;4.47;0.77;;;13.50;99.90;;;;;;4977671;28;20105;-68
2023/05/16 12:23:09;;;;;;;5.68;1.00;;;13.40;99.90;;;;;;4990561;28;20097;-68
2023/05/16 12:25:36;;;;;;;1.58;0.50;;;13.30;99.90;;;;;;4992702;28;20173;-69
2023/05/16 12:28:02;;;;;;;;;;;13.00;99.90;;;;;;4994565;28;20014;-69
2023/05/16 12:30:30;;;;;;;7.03;0.82;;;12.90;99.90;;;;;;4988368;28;19913;-67
2023/05/16 12:32:56;;;;;;;5.22;1.08;;;12.90;99.90;;;;;;4991959;28;20041;-67
2023/05/16 12:35:23;;;;;;;4.55;0.77;;;12.80;99.90;;;;;;4989627;28;20069;-67
2023/05/16 12:37:53;;;;;;;7.35;1.08;;;13.00;99.90;;;;;;4998476;28;20038;-67
2023/05/16 12:40:19;;;;;;;4.13;0.70;;;13.20;99.90;;;;;;5004495;28;20105;-67
2023/05/16 12:42:52;;;;;;;2.53;0.68;;;13.30;99.90;;;;;;4981007;28;20102;-80
2023/05/16 12:45:18;;;;;;;5.15;0.98;;;13.50;99.90;;;;;;4993794;28;20031;-69
2023/05/16 12:47:44;;;;;;;10.97;1.40;;;13.50;99.90;;;;;;5011054;28;20326;-69
2023/05/16 12:50:16;;;;;;;6.40;1.33;;;13.60;99.90;;;;;;4981370;28;20026;-81
2023/05/16 12:52:58;;;;;;;8.85;0.82;;;13.70;99.90;;;;;;4993235;28;20022;-79